Time;durP1;ratioP1;P1;durP2;ratioP2;P2;SDS_P1;SDS_P2;PMS_P1;PMS_P2;Temp;Humidity;BMP_temperature;BMP_pressure;BME280_temperature;BME280_humidity;BME280_pressure;Samples;Min_cycle;Max_cycle;Signal;HPM_P1;HPM_P2
2022/05/16 00:01:26;;;;;;;4.38;4.05;;;;;;;;;;6554432;22;20014;-62
2022/05/16 00:03:57;;;;;;;4.35;4.07;;;;;;;;;;6553604;22;20007;-62
2022/05/16 00:06:27;;;;;;;4.38;4.15;;;;;;;;;;6554717;22;20029;-62
2022/05/16 00:08:58;;;;;;;3.22;3.00;;;;;;;;;;6553989;22;20002;-62
2022/05/16 00:11:29;;;;;;;4.65;4.28;;;;;;;;;;6553937;22;20002;-62
2022/05/16 00:13:59;;;;;;;3.55;3.28;;;;;;;;;;6553850;22;20006;-62
2022/05/16 00:16:30;;;;;;;4.95;4.50;;;;;;;;;;6540603;22;20085;-58
2022/05/16 00:19:00;;;;;;;4.95;3.80;;;;;;;;;;6555730;22;20069;-58
2022/05/16 00:21:31;;;;;;;6.85;4.20;;;;;;;;;;6527946;22;19990;-58
2022/05/16 00:24:01;;;;;;;6.18;3.92;;;;;;;;;;6528123;22;20010;-57
2022/05/16 00:26:32;;;;;;;8.57;3.70;;;;;;;;;;6528415;22;20002;-58
2022/05/16 00:29:02;;;;;;;4.25;3.90;;;;;;;;;;6528378;22;20686;-57
2022/05/16 00:31:32;;;;;;;9.07;4.82;;;;;;;;;;6556202;22;19995;-58
2022/05/16 00:34:03;;;;;;;3.42;3.13;;;;;;;;;;6527841;22;20005;-58
2022/05/16 00:36:33;;;;;;;4.72;4.30;;;;;;;;;;6555731;22;20473;-58
2022/05/16 00:39:03;;;;;;;4.05;3.72;;;;;;;;;;6527934;22;20010;-58
2022/05/16 00:41:34;;;;;;;3.17;3.05;;;;;;;;;;6527659;22;20003;-58
2022/05/16 00:44:04;;;;;;;3.58;3.35;;;;;;;;;;6527509;22;20003;-58
2022/05/16 00:46:35;;;;;;;3.85;3.28;;;;;;;;;;6525566;22;20037;-58
2022/05/16 00:49:08;;;;;;;6.57;4.30;;;;;;;;;;6527628;22;20006;-58
2022/05/16 00:51:44;;;;;;;5.68;3.53;;;;;;;;;;6528143;22;20372;-61
2022/05/16 00:54:20;;;;;;;4.40;3.90;;;;;;;;;;6528009;22;20006;-57
2022/05/16 00:56:53;;;;;;;4.35;3.83;;;;;;;;;;6527834;22;20048;-58
2022/05/16 00:59:25;;;;;;;3.85;3.58;;;;;;;;;;6527995;22;20391;-57
2022/05/16 01:04:48;;;;;;;4.57;4.37;;;;;;;;;;6555201;22;20016;-58
2022/05/16 01:07:22;;;;;;;4.32;3.95;;;;;;;;;;6527627;22;19999;-58
2022/05/16 01:09:52;;;;;;;7.43;4.35;;;;;;;;;;6527869;22;20324;-57
2022/05/16 01:12:24;;;;;;;3.75;3.58;;;;;;;;;;6527692;22;20005;-58
2022/05/16 01:14:55;;;;;;;4.35;4.03;;;;;;;;;;6527869;22;20055;-57
2022/05/16 01:17:26;;;;;;;4.88;4.45;;;;;;;;;;6555287;22;20011;-58
2022/05/16 01:19:56;;;;;;;4.05;3.75;;;;;;;;;;6527433;22;20344;-58
2022/05/16 01:22:32;;;;;;;5.43;4.47;;;;;;;;;;6527702;22;20201;-57
2022/05/16 01:25:06;;;;;;;3.97;3.75;;;;;;;;;;6554850;22;20030;-58
2022/05/16 01:27:46;;;;;;;3.58;3.42;;;;;;;;;;6527681;22;20016;-58
2022/05/16 01:30:19;;;;;;;4.78;4.50;;;;;;;;;;6527754;22;20074;-58
2022/05/16 01:32:50;;;;;;;5.45;5.05;;;;;;;;;;6527221;22;19999;-58
2022/05/16 01:35:21;;;;;;;4.45;4.25;;;;;;;;;;6527207;22;19994;-58
2022/05/16 01:40:40;;;;;;;5.73;4.97;;;;;;;;;;6555084;22;20478;-58
2022/05/16 01:43:11;;;;;;;8.32;3.78;;;;;;;;;;6527615;22;19999;-58
2022/05/16 01:45:42;;;;;;;5.13;4.68;;;;;;;;;;6554999;22;19991;-58
2022/05/16 01:48:13;;;;;;;4.28;3.92;;;;;;;;;;6527229;22;19998;-58
2022/05/16 01:50:44;;;;;;;4.47;4.18;;;;;;;;;;6527851;22;20242;-58
2022/05/16 01:53:15;;;;;;;4.35;4.05;;;;;;;;;;6527016;22;20033;-60
2022/05/16 01:55:45;;;;;;;8.98;4.80;;;;;;;;;;6555385;22;20307;-62
2022/05/16 01:58:15;;;;;;;5.10;3.63;;;;;;;;;;6527360;22;20451;-61
2022/05/16 02:00:45;;;;;;;5.50;5.00;;;;;;;;;;6527253;22;20006;-58
2022/05/16 02:03:16;;;;;;;4.85;4.28;;;;;;;;;;6527425;22;20002;-58
2022/05/16 02:05:46;;;;;;;3.63;3.30;;;;;;;;;;6527047;22;19994;-60
2022/05/16 02:08:17;;;;;;;4.25;3.97;;;;;;;;;;6527264;22;20049;-58
2022/05/16 02:10:47;;;;;;;4.30;4.00;;;;;;;;;;6527378;22;20505;-58
2022/05/16 02:13:17;;;;;;;4.50;4.20;;;;;;;;;;6527554;22;20026;-58
2022/05/16 02:15:48;;;;;;;4.60;4.22;;;;;;;;;;6527383;22;20013;-58
2022/05/16 02:18:18;;;;;;;3.97;3.70;;;;;;;;;;6527931;22;19998;-60
2022/05/16 02:20:48;;;;;;;4.57;4.22;;;;;;;;;;6529383;22;20062;-58
2022/05/16 02:26:07;;;;;;;3.83;3.35;;;;;;;;;;6556677;22;20033;-58
2022/05/16 02:28:38;;;;;;;3.78;3.50;;;;;;;;;;6528789;22;19999;-58
2022/05/16 02:31:08;;;;;;;5.03;4.75;;;;;;;;;;6556119;22;19995;-58
2022/05/16 02:33:38;;;;;;;4.60;4.28;;;;;;;;;;6528657;22;20354;-58
2022/05/16 02:36:08;;;;;;;3.88;3.42;;;;;;;;;;6556720;22;20005;-58
2022/05/16 02:38:39;;;;;;;4.80;3.83;;;;;;;;;;6528742;22;19999;-58
2022/05/16 02:41:09;;;;;;;3.92;3.60;;;;;;;;;;6528806;22;20026;-58
2022/05/16 02:43:40;;;;;;;2.92;2.83;;;;;;;;;;6528433;22;20009;-58
2022/05/16 02:46:10;;;;;;;4.75;4.38;;;;;;;;;;6527518;22;20009;-58
2022/05/16 02:48:40;;;;;;;4.95;4.50;;;;;;;;;;6529177;22;20021;-58
2022/05/16 02:51:10;;;;;;;3.90;3.53;;;;;;;;;;6529017;22;20013;-58
2022/05/16 02:53:41;;;;;;;5.00;4.22;;;;;;;;;;6527941;22;20006;-61
2022/05/16 02:56:11;;;;;;;7.45;4.25;;;;;;;;;;6556261;22;20021;-58
2022/05/16 02:58:43;;;;;;;4.93;4.45;;;;;;;;;;6528996;22;20080;-60
2022/05/16 03:01:13;;;;;;;6.20;4.35;;;;;;;;;;6528736;22;19999;-58
2022/05/16 03:03:43;;;;;;;4.93;3.20;;;;;;;;;;6528106;22;20013;-61
2022/05/16 03:06:14;;;;;;;5.80;3.95;;;;;;;;;;6528349;22;20048;-59
2022/05/16 03:08:44;;;;;;;4.90;4.60;;;;;;;;;;6528427;22;20002;-59
2022/05/16 03:11:14;;;;;;;5.22;4.85;;;;;;;;;;6528596;22;20003;-59
2022/05/16 03:13:44;;;;;;;3.72;3.55;;;;;;;;;;6528045;22;20003;-59
2022/05/16 03:16:15;;;;;;;5.13;4.75;;;;;;;;;;6528417;22;20074;-59
2022/05/16 03:18:45;;;;;;;5.20;3.70;;;;;;;;;;6528505;22;20002;-59
2022/05/16 03:21:16;;;;;;;4.40;4.10;;;;;;;;;;6528538;22;20006;-59
2022/05/16 03:23:46;;;;;;;3.47;3.17;;;;;;;;;;6528012;22;20002;-59
2022/05/16 03:26:16;;;;;;;3.80;3.60;;;;;;;;;;6528936;22;20496;-59
2022/05/16 03:28:46;;;;;;;6.88;4.40;;;;;;;;;;6556326;22;20374;-61
2022/05/16 03:31:17;;;;;;;5.07;4.78;;;;;;;;;;6528394;22;19995;-58
2022/05/16 03:33:47;;;;;;;5.15;4.10;;;;;;;;;;6528369;22;20081;-59
2022/05/16 03:36:18;;;;;;;6.10;3.85;;;;;;;;;;6528551;22;20437;-59
2022/05/16 03:41:37;;;;;;;5.23;4.83;;;;;;;;;;6556234;22;20013;-61
2022/05/16 03:44:07;;;;;;;4.93;4.63;;;;;;;;;;6555643;22;20125;-59
2022/05/16 03:46:38;;;;;;;5.90;5.38;;;;;;;;;;6528252;22;19999;-59
2022/05/16 03:49:09;;;;;;;4.22;3.97;;;;;;;;;;6528409;22;20052;-59
2022/05/16 03:51:40;;;;;;;7.85;4.50;;;;;;;;;;6528746;22;20002;-59
2022/05/16 03:54:10;;;;;;;5.05;4.40;;;;;;;;;;6528623;22;20081;-59
2022/05/16 03:56:41;;;;;;;5.57;4.93;;;;;;;;;;6528513;22;20010;-58
2022/05/16 03:59:11;;;;;;;4.13;3.92;;;;;;;;;;6555943;22;19998;-59
2022/05/16 04:01:43;;;;;;;3.33;3.15;;;;;;;;;;6528871;22;19999;-59
2022/05/16 04:04:14;;;;;;;4.93;4.57;;;;;;;;;;6527982;22;20006;-59
2022/05/16 04:06:45;;;;;;;7.88;5.93;;;;;;;;;;6555725;22;19999;-61
2022/05/16 04:09:15;;;;;;;5.03;3.83;;;;;;;;;;6528239;22;20336;-59
2022/05/16 04:11:46;;;;;;;12.55;4.65;;;;;;;;;;6556200;22;20021;-59
2022/05/16 04:14:16;;;;;;;4.32;3.95;;;;;;;;;;6528047;22;19995;-59
2022/05/16 04:16:46;;;;;;;16.73;5.53;;;;;;;;;;6528233;22;20009;-59
2022/05/16 04:19:16;;;;;;;3.60;3.40;;;;;;;;;;6528048;22;20199;-59
2022/05/16 04:21:47;;;;;;;4.97;4.22;;;;;;;;;;6527934;22;20438;-59
2022/05/16 04:24:17;;;;;;;4.20;4.00;;;;;;;;;;6527760;22;19999;-59
2022/05/16 04:26:48;;;;;;;5.78;4.72;;;;;;;;;;6528109;22;20005;-59
2022/05/16 04:29:18;;;;;;;4.97;4.32;;;;;;;;;;6526625;22;20022;-59
2022/05/16 04:31:50;;;;;;;4.15;3.85;;;;;;;;;;6527744;22;20051;-59
2022/05/16 04:34:20;;;;;;;6.22;5.38;;;;;;;;;;6527215;22;19991;-59
2022/05/16 04:36:51;;;;;;;5.72;5.22;;;;;;;;;;6527885;22;20044;-59
2022/05/16 04:39:21;;;;;;;4.38;4.07;;;;;;;;;;6553722;22;20017;-59
2022/05/16 04:44:40;;;;;;;5.10;4.70;;;;;;;;;;6555242;22;20010;-59
2022/05/16 04:47:10;;;;;;;9.18;4.47;;;;;;;;;;6527918;22;20694;-59
2022/05/16 04:49:41;;;;;;;6.28;5.22;;;;;;;;;;6527592;22;20140;-59
2022/05/16 04:52:11;;;;;;;5.05;4.65;;;;;;;;;;6527945;22;19999;-59
2022/05/16 04:54:42;;;;;;;6.18;4.82;;;;;;;;;;6527115;22;19995;-59
2022/05/16 04:57:12;;;;;;;4.20;4.00;;;;;;;;;;6528089;22;20001;-59
2022/05/16 04:59:46;;;;;;;3.90;3.70;;;;;;;;;;6527618;22;20001;-59
2022/05/16 05:02:17;;;;;;;6.25;4.15;;;;;;;;;;6527519;22;20002;-59
2022/05/16 05:04:48;;;;;;;5.45;4.45;;;;;;;;;;6527488;22;20259;-59
2022/05/16 05:07:18;;;;;;;2.92;2.83;;;;;;;;;;6527658;22;20006;-59
2022/05/16 05:15:27;;;;;;;3.42;3.22;;;;;;;;;;6555027;22;20007;-59
2022/05/16 05:17:57;;;;;;;6.18;5.65;;;;;;;;;;6525913;22;19999;-59
2022/05/16 05:20:27;;;;;;;5.10;4.78;;;;;;;;;;6527642;22;20002;-59
2022/05/16 05:22:58;;;;;;;6.97;5.47;;;;;;;;;;6527407;22;19998;-59
2022/05/16 05:25:29;;;;;;;4.78;4.47;;;;;;;;;;6525558;22;20457;-59
2022/05/16 05:28:01;;;;;;;4.45;4.05;;;;;;;;;;6526355;22;20089;-59
2022/05/16 05:30:32;;;;;;;4.65;4.22;;;;;;;;;;6527464;22;20425;-59
2022/05/16 05:33:02;;;;;;;6.40;5.80;;;;;;;;;;6555396;22;19998;-59
2022/05/16 05:35:33;;;;;;;10.52;5.35;;;;;;;;;;6527149;22;20013;-59
2022/05/16 05:38:03;;;;;;;4.13;3.83;;;;;;;;;;6527531;22;20006;-59
2022/05/16 05:40:33;;;;;;;5.55;4.50;;;;;;;;;;6527134;22;20014;-59
2022/05/16 05:43:04;;;;;;;5.72;5.25;;;;;;;;;;6527837;22;20010;-59
2022/05/16 05:45:35;;;;;;;5.43;5.00;;;;;;;;;;6527462;22;20496;-58
2022/05/16 05:48:06;;;;;;;4.53;4.22;;;;;;;;;;6527608;22;20051;-58
2022/05/16 05:50:36;;;;;;;4.93;4.45;;;;;;;;;;6555066;22;20433;-58
2022/05/16 05:53:06;;;;;;;4.30;4.00;;;;;;;;;;6527552;22;20451;-60
2022/05/16 05:55:37;;;;;;;4.53;4.18;;;;;;;;;;6529119;22;20028;-58
2022/05/16 05:58:07;;;;;;;5.25;4.82;;;;;;;;;;6529586;22;20003;-60
2022/05/16 06:00:38;;;;;;;4.78;4.38;;;;;;;;;;6530031;22;20014;-58
2022/05/16 06:03:08;;;;;;;8.48;5.22;;;;;;;;;;6529666;22;20006;-58
2022/05/16 06:05:38;;;;;;;7.22;4.70;;;;;;;;;;6529251;22;19999;-58
2022/05/16 06:08:08;;;;;;;10.88;6.30;;;;;;;;;;6557310;22;20006;-61
2022/05/16 06:10:39;;;;;;;9.00;4.78;;;;;;;;;;6529133;22;19999;-58
2022/05/16 06:13:09;;;;;;;5.40;4.93;;;;;;;;;;6529671;22;20032;-58
2022/05/16 06:15:40;;;;;;;9.82;6.18;;;;;;;;;;6528821;22;20463;-58
2022/05/16 06:18:10;;;;;;;4.10;3.90;;;;;;;;;;6528807;22;19998;-59
2022/05/16 06:20:41;;;;;;;8.13;6.20;;;;;;;;;;6536376;22;20018;-81
2022/05/16 06:23:11;;;;;;;3.67;3.47;;;;;;;;;;6564746;22;20025;-82
2022/05/16 06:25:44;;;;;;;11.53;4.97;;;;;;;;;;6565208;22;19991;-83
2022/05/16 06:28:16;;;;;;;5.05;4.57;;;;;;;;;;6566019;22;20232;-82
2022/05/16 06:30:48;;;;;;;6.80;4.80;;;;;;;;;;6565199;22;20015;-82
2022/05/16 06:33:19;;;;;;;7.93;5.32;;;;;;;;;;6565692;22;20352;-82
2022/05/16 06:35:49;;;;;;;18.55;6.10;;;;;;;;;;6562948;22;20387;-82
2022/05/16 06:38:25;;;;;;;5.97;4.63;;;;;;;;;;6564554;22;19999;-82
2022/05/16 06:40:55;;;;;;;4.63;4.32;;;;;;;;;;6565533;22;20003;-83
2022/05/16 06:43:27;;;;;;;8.52;5.15;;;;;;;;;;6566872;22;20010;-83
2022/05/16 06:45:57;;;;;;;5.75;4.45;;;;;;;;;;6565376;22;20024;-82
2022/05/16 06:48:28;;;;;;;4.93;4.65;;;;;;;;;;6566091;22;19991;-82
2022/05/16 06:50:58;;;;;;;5.78;4.50;;;;;;;;;;6570743;22;20033;-82
2022/05/16 06:53:29;;;;;;;4.28;3.88;;;;;;;;;;6571390;22;19995;-82
2022/05/16 06:56:00;;;;;;;5.10;4.70;;;;;;;;;;6571265;22;20014;-80
2022/05/16 06:58:31;;;;;;;10.32;4.63;;;;;;;;;;6573162;22;20492;-80
2022/05/16 07:01:01;;;;;;;3.93;3.67;;;;;;;;;;6571716;22;19995;-80
2022/05/16 07:03:32;;;;;;;7.03;4.15;;;;;;;;;;6569612;22;20292;-80
2022/05/16 07:06:02;;;;;;;3.85;3.55;;;;;;;;;;6567577;22;20489;-80
2022/05/16 07:08:33;;;;;;;4.35;3.72;;;;;;;;;;6567167;22;19995;-81
2022/05/16 07:11:03;;;;;;;8.00;4.15;;;;;;;;;;6569367;22;20442;-80
2022/05/16 07:13:34;;;;;;;6.80;4.23;;;;;;;;;;6568247;22;20022;-80
2022/05/16 07:16:04;;;;;;;4.00;3.70;;;;;;;;;;6567630;22;20331;-80
2022/05/16 07:18:35;;;;;;;4.60;4.28;;;;;;;;;;6568378;22;20002;-83
2022/05/16 07:21:06;;;;;;;10.95;3.53;;;;;;;;;;6570376;22;20014;-82
2022/05/16 07:23:37;;;;;;;8.15;2.85;;;;;;;;;;6571904;22;19998;-82
2022/05/16 07:28:55;;;;;;;14.93;3.73;;;;;;;;;;6572135;22;20323;-82
2022/05/16 07:31:26;;;;;;;2.50;2.30;;;;;;;;;;6573027;22;20221;-82
2022/05/16 07:33:58;;;;;;;7.90;5.50;;;;;;;;;;6572151;22;19994;-82
2022/05/16 07:36:28;;;;;;;5.60;3.00;;;;;;;;;;6570722;22;19995;-82
2022/05/16 07:38:58;;;;;;;2.80;2.65;;;;;;;;;;6571066;22;20074;-82
2022/05/16 07:41:31;;;;;;;18.13;3.97;;;;;;;;;;6573245;22;19999;-81
2022/05/16 07:44:01;;;;;;;2.58;2.38;;;;;;;;;;6572741;22;20022;-81
2022/05/16 07:46:31;;;;;;;5.20;3.23;;;;;;;;;;6574771;22;20476;-82
2022/05/16 07:49:01;;;;;;;6.40;2.53;;;;;;;;;;6573919;22;19995;-82
2022/05/16 07:51:32;;;;;;;11.83;3.53;;;;;;;;;;6576373;22;20232;-82
2022/05/16 07:54:03;;;;;;;6.07;3.47;;;;;;;;;;6581319;22;20228;-81
2022/05/16 07:56:34;;;;;;;7.90;3.35;;;;;;;;;;6582229;22;19999;-81
2022/05/16 07:59:04;;;;;;;6.13;3.58;;;;;;;;;;6573967;22;20002;-82
2022/05/16 08:01:36;;;;;;;3.25;3.00;;;;;;;;;;6572894;22;20073;-81
2022/05/16 08:04:06;;;;;;;3.42;3.13;;;;;;;;;;6576286;22;19979;-80
2022/05/16 08:06:37;;;;;;;5.05;3.05;;;;;;;;;;6580553;22;20060;-80
2022/05/16 08:11:56;;;;;;;;;;;;;;;;;;6580433;22;20260;-80
2022/05/16 08:14:26;;;;;;;3.40;3.00;;;;;;;;;;6580074;22;19899;-81
2022/05/16 08:16:56;;;;;;;3.47;3.15;;;;;;;;;;6577216;22;20054;-82
2022/05/16 08:19:29;;;;;;;18.63;3.50;;;;;;;;;;6570569;22;20003;-82
2022/05/16 08:21:59;;;;;;;6.68;2.10;;;;;;;;;;6572785;22;20002;-82
2022/05/16 08:24:29;;;;;;;7.28;3.38;;;;;;;;;;6572293;22;20014;-82
2022/05/16 08:27:02;;;;;;;4.15;3.63;;;;;;;;;;6571767;22;19995;-82
2022/05/16 08:29:32;;;;;;;3.35;3.15;;;;;;;;;;6573973;22;20026;-82
2022/05/16 08:32:03;;;;;;;2.07;1.97;;;;;;;;;;6573687;22;19991;-82
2022/05/16 08:34:33;;;;;;;2.78;2.53;;;;;;;;;;6571371;22;20292;-82
2022/05/16 08:39:53;;;;;;;;;;;;;;;;;;6573500;22;20128;-83
2022/05/16 08:42:31;;;;;;;3.70;2.93;;;;;;;;;;6576080;22;19903;-83
2022/05/16 08:45:04;;;;;;;8.32;4.43;;;;;;;;;;6573115;22;20232;-82
2022/05/16 08:47:43;;;;;;;8.98;3.92;;;;;;;;;;6575121;22;20006;-83
2022/05/16 08:50:18;;;;;;;3.00;2.78;;;;;;;;;;6577877;22;20017;-83
2022/05/16 08:52:50;;;;;;;4.20;3.28;;;;;;;;;;6576658;22;20048;-83
2022/05/16 08:55:32;;;;;;;4.22;3.85;;;;;;;;;;6578782;22;20047;-82
2022/05/16 08:58:09;;;;;;;4.70;4.13;;;;;;;;;;6575528;22;20009;-81
2022/05/16 09:00:47;;;;;;;17.88;5.30;;;;;;;;;;6573206;22;19998;-81
2022/05/16 09:03:22;;;;;;;8.50;3.67;;;;;;;;;;6573237;22;19999;-82
2022/05/16 09:05:56;;;;;;;3.92;3.55;;;;;;;;;;6574698;22;20441;-82
2022/05/16 09:08:49;;;;;;;3.35;3.05;;;;;;;;;;6576007;22;19994;-82
2022/05/16 09:11:27;;;;;;;3.42;3.22;;;;;;;;;;6518453;22;19995;-82
2022/05/16 09:14:00;;;;;;;17.08;4.53;;;;;;;;;;6579465;22;19994;-82
2022/05/16 09:16:37;;;;;;;11.13;3.72;;;;;;;;;;6579244;22;19994;-82
2022/05/16 09:19:26;;;;;;;4.20;3.13;;;;;;;;;;6577034;22;19994;-82
2022/05/16 09:22:08;;;;;;;4.00;3.45;;;;;;;;;;6569762;22;20007;-82
2022/05/16 09:24:51;;;;;;;4.25;3.75;;;;;;;;;;6569486;22;20025;-83
2022/05/16 09:30:20;;;;;;;4.50;4.18;;;;;;;;;;6571961;22;20449;-82
2022/05/16 09:32:59;;;;;;;7.20;4.03;;;;;;;;;;6570664;22;20021;-82
2022/05/16 09:35:34;;;;;;;4.68;4.15;;;;;;;;;;6569447;22;20001;-83
2022/05/16 09:38:04;;;;;;;6.25;5.72;;;;;;;;;;6568913;22;19999;-82
2022/05/16 09:40:40;;;;;;;5.65;4.30;;;;;;;;;;6569050;22;20009;-82
2022/05/16 09:43:20;;;;;;;5.75;3.28;;;;;;;;;;6566759;22;19999;-83
2022/05/16 09:45:53;;;;;;;3.97;3.40;;;;;;;;;;6570237;22;20019;-82
2022/05/16 09:48:24;;;;;;;3.40;3.10;;;;;;;;;;6573980;22;20030;-82
2022/05/16 09:50:59;;;;;;;4.00;3.70;;;;;;;;;;6575236;22;19998;-83
2022/05/16 09:53:32;;;;;;;3.58;3.25;;;;;;;;;;6573191;22;19999;-81
2022/05/16 09:56:09;;;;;;;4.07;3.67;;;;;;;;;;6575495;22;19995;-83
2022/05/16 09:58:49;;;;;;;4.60;4.20;;;;;;;;;;6574161;22;19995;-82
2022/05/16 10:01:40;;;;;;;9.40;3.47;;;;;;;;;;6573169;22;19999;-82
2022/05/16 10:04:18;;;;;;;4.47;4.07;;;;;;;;;;6575199;22;19998;-83
2022/05/16 10:06:56;;;;;;;3.78;3.53;;;;;;;;;;6578890;22;19991;-83
2022/05/16 10:09:46;;;;;;;7.63;4.07;;;;;;;;;;6580501;22;20030;-83
2022/05/16 10:12:18;;;;;;;5.47;4.65;;;;;;;;;;6571387;22;20014;-83
2022/05/16 10:14:49;;;;;;;4.85;3.63;;;;;;;;;;6573287;22;19995;-81
2022/05/16 10:17:24;;;;;;;4.63;4.22;;;;;;;;;;6570567;22;19998;-83
2022/05/16 10:19:57;;;;;;;13.23;5.53;;;;;;;;;;6567359;22;19991;-83
2022/05/16 10:22:28;;;;;;;11.20;5.53;;;;;;;;;;6570219;22;19990;-83
2022/05/16 10:24:59;;;;;;;7.50;4.07;;;;;;;;;;6570497;22;20023;-83
2022/05/16 10:27:33;;;;;;;5.82;4.88;;;;;;;;;;6567439;22;19995;-82
2022/05/16 10:30:06;;;;;;;3.42;3.10;;;;;;;;;;6568824;22;20021;-82
2022/05/16 10:35:33;;;;;;;6.50;4.85;;;;;;;;;;6566118;22;20036;-82
2022/05/16 10:38:06;;;;;;;6.32;5.40;;;;;;;;;;6567773;22;19995;-82
2022/05/16 10:40:40;;;;;;;4.38;3.70;;;;;;;;;;6566226;22;19999;-82
2022/05/16 10:43:22;;;;;;;5.97;5.10;;;;;;;;;;6568134;22;20438;-83
2022/05/16 10:45:55;;;;;;;4.97;4.55;;;;;;;;;;6567339;22;20024;-82
2022/05/16 10:48:29;;;;;;;12.10;6.03;;;;;;;;;;6568418;22;20074;-82
2022/05/16 10:51:10;;;;;;;11.18;6.15;;;;;;;;;;6566668;22;20132;-82
2022/05/16 10:53:52;;;;;;;6.28;5.68;;;;;;;;;;6566578;22;19999;-82
2022/05/16 10:56:38;;;;;;;9.27;7.53;;;;;;;;;;6565669;22;20003;-80
2022/05/16 10:59:16;;;;;;;7.88;7.18;;;;;;;;;;6566945;22;20052;-80
2022/05/16 11:01:57;;;;;;;7.57;6.78;;;;;;;;;;6564103;22;20003;-81
2022/05/16 11:04:34;;;;;;;7.28;6.05;;;;;;;;;;6563417;22;20029;-81
2022/05/16 11:07:23;;;;;;;4.93;4.63;;;;;;;;;;6557132;22;19991;-81
2022/05/16 11:10:12;;;;;;;7.22;6.60;;;;;;;;;;6566213;22;20411;-82
2022/05/16 11:12:51;;;;;;;10.57;7.25;;;;;;;;;;6570272;22;20006;-82
2022/05/16 11:15:27;;;;;;;8.75;8.05;;;;;;;;;;6576543;22;19999;-83
2022/05/16 11:18:00;;;;;;;13.15;7.32;;;;;;;;;;6576950;22;20003;-83
2022/05/16 11:20:34;;;;;;;8.35;7.47;;;;;;;;;;6568641;22;20014;-84
2022/05/16 11:23:11;;;;;;;9.98;7.80;;;;;;;;;;6563564;22;20073;-83
2022/05/16 11:25:51;;;;;;;9.15;8.40;;;;;;;;;;6562572;22;19994;-81
2022/05/16 11:28:40;;;;;;;8.68;7.53;;;;;;;;;;6564474;22;19998;-82
2022/05/16 11:31:13;;;;;;;10.60;8.93;;;;;;;;;;6565966;22;19991;-82
2022/05/16 11:33:51;;;;;;;9.48;8.75;;;;;;;;;;6565669;22;20026;-82
2022/05/16 11:36:32;;;;;;;7.88;7.22;;;;;;;;;;6568701;22;20339;-83
2022/05/16 11:39:05;;;;;;;11.43;8.13;;;;;;;;;;6570035;22;20054;-83
2022/05/16 11:41:35;;;;;;;8.85;8.25;;;;;;;;;;6567792;22;20062;-83
2022/05/16 11:44:10;;;;;;;8.77;7.80;;;;;;;;;;6571948;22;19990;-83
2022/05/16 11:46:43;;;;;;;7.78;7.28;;;;;;;;;;6573456;22;20290;-82
2022/05/16 11:49:36;;;;;;;8.27;7.63;;;;;;;;;;6574919;22;20015;-83
2022/05/16 11:52:09;;;;;;;11.35;7.05;;;;;;;;;;6574494;22;19991;-83
2022/05/16 11:54:51;;;;;;;15.18;7.60;;;;;;;;;;6575273;22;20013;-83
2022/05/16 12:02:58;;;;;;;7.85;7.03;;;;;;;;;;6588331;22;20353;-83
2022/05/16 12:05:28;;;;;;;9.40;6.35;;;;;;;;;;6577863;22;20006;-82
2022/05/16 12:08:13;;;;;;;7.63;6.83;;;;;;;;;;6577426;22;20066;-82
2022/05/16 12:10:55;;;;;;;6.75;6.13;;;;;;;;;;6579883;22;20376;-82
2022/05/16 12:13:32;;;;;;;5.93;5.43;;;;;;;;;;6578351;22;20407;-82
2022/05/16 12:16:12;;;;;;;8.57;7.88;;;;;;;;;;6578731;22;19998;-82
2022/05/16 12:18:43;;;;;;;5.88;5.30;;;;;;;;;;6579483;22;20021;-84
2022/05/16 12:23:54;;;;;;;13.82;5.55;;;;;;;;;;6524810;22;20455;-83
2022/05/16 12:26:27;;;;;;;6.38;5.38;;;;;;;;;;6498441;22;19999;-84
2022/05/16 12:29:22;;;;;;;6.05;5.63;;;;;;;;;;6526188;22;20010;-80
2022/05/16 12:31:53;;;;;;;5.72;5.25;;;;;;;;;;6525425;22;20074;-82
2022/05/16 12:34:26;;;;;;;4.85;4.35;;;;;;;;;;6525173;22;19995;-81
2022/05/16 12:36:56;;;;;;;10.68;5.45;;;;;;;;;;6525694;22;20007;-79
2022/05/16 12:39:28;;;;;;;6.00;4.47;;;;;;;;;;6525167;22;19995;-82
2022/05/16 12:41:59;;;;;;;10.45;5.00;;;;;;;;;;6526855;22;19995;-82
2022/05/16 12:44:29;;;;;;;13.10;4.73;;;;;;;;;;6525726;22;20030;-81
2022/05/16 12:47:02;;;;;;;3.70;3.43;;;;;;;;;;6526189;22;19999;-82
2022/05/16 12:49:49;;;;;;;4.60;4.30;;;;;;;;;;6525898;22;20003;-81
2022/05/16 12:52:19;;;;;;;9.07;4.22;;;;;;;;;;6525096;22;19999;-81
2022/05/16 12:55:06;;;;;;;5.28;3.83;;;;;;;;;;6498676;22;20048;-82
2022/05/16 12:57:42;;;;;;;4.88;3.92;;;;;;;;;;6525731;22;20180;-82
2022/05/16 13:00:16;;;;;;;7.07;4.10;;;;;;;;;;6498165;22;20003;-82
2022/05/16 13:02:47;;;;;;;9.57;4.65;;;;;;;;;;6524317;22;20003;-82
2022/05/16 13:05:40;;;;;;;9.50;4.60;;;;;;;;;;6498341;22;20078;-81
2022/05/16 13:08:18;;;;;;;3.72;3.53;;;;;;;;;;6525747;22;20382;-82
2022/05/16 13:10:56;;;;;;;6.35;4.93;;;;;;;;;;6526160;22;19991;-81
2022/05/16 13:13:35;;;;;;;11.00;4.70;;;;;;;;;;6498140;22;20085;-81
2022/05/16 13:16:06;;;;;;;10.93;5.80;;;;;;;;;;6530407;22;20222;-86
2022/05/16 13:18:43;;;;;;;4.33;3.93;;;;;;;;;;6531826;22;20009;-84
2022/05/16 13:21:14;;;;;;;8.07;4.22;;;;;;;;;;6506094;22;20241;-84
2022/05/16 13:23:44;;;;;;;12.80;4.38;;;;;;;;;;6506559;22;20063;-85
2022/05/16 13:29:22;;;;;;;5.90;4.85;;;;;;;;;;6533304;22;20014;-85
2022/05/16 13:31:54;;;;;;;9.32;5.03;;;;;;;;;;6533883;22;19991;-85
2022/05/16 13:34:29;;;;;;;4.97;3.38;;;;;;;;;;6535878;22;20015;-84
2022/05/16 13:37:00;;;;;;;5.70;5.20;;;;;;;;;;6540850;22;20132;-83
2022/05/16 13:39:34;;;;;;;3.90;3.65;;;;;;;;;;6511016;22;20054;-83
2022/05/16 13:42:04;;;;;;;6.30;4.28;;;;;;;;;;6506668;22;20366;-84
2022/05/16 13:44:39;;;;;;;4.18;3.53;;;;;;;;;;6534021;22;19991;-80
2022/05/16 13:47:12;;;;;;;4.45;3.83;;;;;;;;;;6528291;22;19995;-80
2022/05/16 13:49:42;;;;;;;3.72;3.53;;;;;;;;;;6498170;22;20054;-79
2022/05/16 13:52:24;;;;;;;5.65;2.85;;;;;;;;;;6525735;22;19991;-82
2022/05/16 13:54:56;;;;;;;4.63;3.03;;;;;;;;;;6497677;22;19991;-79
2022/05/16 13:57:27;;;;;;;6.15;3.30;;;;;;;;;;6506190;22;19999;-85
2022/05/16 14:00:16;;;;;;;9.93;3.00;;;;;;;;;;6499256;22;20007;-81
2022/05/16 14:02:46;;;;;;;;;;;;;;;;;;6498314;22;20069;-79
2022/05/16 14:05:22;;;;;;;5.22;3.70;;;;;;;;;;6525440;22;19898;-82
2022/05/16 14:07:53;;;;;;;5.40;3.22;;;;;;;;;;6527942;22;19995;-81
2022/05/16 14:10:24;;;;;;;5.00;3.05;;;;;;;;;;6525325;22;20090;-82
2022/05/16 14:12:58;;;;;;;4.55;3.50;;;;;;;;;;6498733;22;20057;-83
2022/05/16 14:15:34;;;;;;;4.20;2.88;;;;;;;;;;6527386;22;21441;-82
2022/05/16 14:18:13;;;;;;;6.45;3.20;;;;;;;;;;6528652;22;20462;-81
2022/05/16 14:20:43;;;;;;;;;;;;;;;;;;6529861;22;20022;-80
2022/05/16 14:23:15;;;;;;;5.82;3.75;;;;;;;;;;6553711;22;19906;-82
2022/05/16 14:25:45;;;;;;;7.10;3.03;;;;;;;;;;6533733;22;19995;-82
2022/05/16 14:28:17;;;;;;;5.88;2.83;;;;;;;;;;6561225;22;20454;-80
2022/05/16 14:31:10;;;;;;;8.00;3.67;;;;;;;;;;6564214;22;19998;-82
2022/05/16 14:33:49;;;;;;;4.38;3.17;;;;;;;;;;6571789;22;19998;-82
2022/05/16 14:36:31;;;;;;;2.22;2.03;;;;;;;;;;6564498;22;20006;-79
2022/05/16 14:39:07;;;;;;;7.32;2.63;;;;;;;;;;6559952;22;20434;-79
2022/05/16 14:41:48;;;;;;;2.65;2.45;;;;;;;;;;6560548;22;19994;-80
2022/05/16 14:44:20;;;;;;;2.65;2.40;;;;;;;;;;6561677;22;20377;-79
2022/05/16 14:47:01;;;;;;;2.97;2.78;;;;;;;;;;6534440;22;20066;-79
2022/05/16 14:49:31;;;;;;;7.57;3.20;;;;;;;;;;6562155;22;20130;-80
2022/05/16 14:52:02;;;;;;;2.07;1.97;;;;;;;;;;6533514;22;20074;-79
2022/05/16 14:54:32;;;;;;;3.47;2.58;;;;;;;;;;6559339;22;20287;-82
2022/05/16 14:57:03;;;;;;;5.23;2.10;;;;;;;;;;6560742;22;20003;-80
2022/05/16 14:59:33;;;;;;;4.10;2.72;;;;;;;;;;6560685;22;19995;-80
2022/05/16 15:04:54;;;;;;;2.30;2.10;;;;;;;;;;6560222;22;20055;-80
2022/05/16 15:07:24;;;;;;;2.60;2.40;;;;;;;;;;6559326;22;20006;-81
2022/05/16 15:09:55;;;;;;;4.32;3.25;;;;;;;;;;6560305;22;19994;-80
2022/05/16 15:18:10;;;;;;;8.52;2.47;;;;;;;;;;6522903;22;20519;-62
2022/05/16 15:20:42;;;;;;;2.85;2.42;;;;;;;;;;6494278;22;19995;-61
2022/05/16 15:23:17;;;;;;;2.30;2.20;;;;;;;;;;6495315;22;20023;-61
2022/05/16 15:25:52;;;;;;;2.38;2.28;;;;;;;;;;6495037;22;20061;-63
2022/05/16 15:40:20;;;;;;;5.80;2.25;;;;;;;;;;6500360;22;20019;-93
2022/05/16 15:42:50;;;;;;;5.70;2.80;;;;;;;;;;6519376;22;20072;-60
2022/05/16 15:45:21;;;;;;;6.80;3.78;;;;;;;;;;6530105;22;19999;-63
2022/05/16 15:47:52;;;;;;;2.45;1.75;;;;;;;;;;6530217;22;20022;-62
2022/05/16 15:50:23;;;;;;;3.20;1.77;;;;;;;;;;6529631;22;20001;-62
2022/05/16 15:52:53;;;;;;;2.10;2.00;;;;;;;;;;6529123;22;20075;-62
2022/05/16 15:55:24;;;;;;;6.10;2.63;;;;;;;;;;6528198;22;19999;-62
2022/05/16 15:57:54;;;;;;;3.25;2.33;;;;;;;;;;6529191;22;20003;-62
2022/05/16 16:00:26;;;;;;;3.23;3.00;;;;;;;;;;6529257;22;20038;-62
2022/05/16 16:02:57;;;;;;;5.95;2.22;;;;;;;;;;6529629;22;20244;-62
2022/05/16 16:08:39;;;;;;;4.72;2.20;;;;;;;;;;6558858;22;20006;-61
2022/05/16 16:11:10;;;;;;;2.55;2.42;;;;;;;;;;6531366;22;20029;-60
2022/05/16 16:13:40;;;;;;;4.72;2.72;;;;;;;;;;6531106;22;20007;-61
2022/05/16 16:16:13;;;;;;;2.65;1.77;;;;;;;;;;6559536;22;20074;-61
2022/05/16 16:18:48;;;;;;;5.10;3.13;;;;;;;;;;6532079;22;20003;-60
2022/05/16 16:21:19;;;;;;;2.85;1.98;;;;;;;;;;6531877;22;20020;-61
2022/05/16 16:23:50;;;;;;;4.35;2.33;;;;;;;;;;6531735;22;20017;-61
2022/05/16 16:26:20;;;;;;;2.75;2.55;;;;;;;;;;6531464;22;20432;-61